Time;durP1;ratioP1;P1;durP2;ratioP2;P2;SDS_P1;SDS_P2;PMS_P1;PMS_P2;Temp;Humidity;BMP_temperature;BMP_pressure;BME280_temperature;BME280_humidity;BME280_pressure;Samples;Min_cycle;Max_cycle;Signal;HPM_P1;HPM_P2
2023/06/13 00:01:50;;;;;;;5.82;5.32;;;23.50;88.90;;;;;;6206303;28;88983;-67
2023/06/13 00:04:52;;;;;;;6.30;5.70;;;23.60;89.00;;;;;;6205860;28;87991;-67
2023/06/13 00:07:54;;;;;;;6.55;5.95;;;23.50;88.90;;;;;;6205098;28;89242;-68
2023/06/13 00:10:57;;;;;;;6.47;5.88;;;23.60;88.90;;;;;;6205447;28;88998;-68
2023/06/13 00:13:59;;;;;;;6.93;6.25;;;23.60;88.80;;;;;;6206295;28;89009;-67
2023/06/13 00:17:02;;;;;;;6.82;6.22;;;23.60;88.80;;;;;;6205192;28;88326;-67
2023/06/13 00:20:04;;;;;;;6.30;5.70;;;23.60;88.80;;;;;;6205065;28;88901;-68
2023/06/13 00:23:08;;;;;;;5.47;4.97;;;23.60;88.80;;;;;;6206183;28;88981;-67
2023/06/13 00:26:12;;;;;;;7.07;6.35;;;23.60;88.80;;;;;;6201085;28;90026;-68
2023/06/13 00:29:14;;;;;;;6.18;5.65;;;23.60;88.80;;;;;;6203722;28;89028;-67
2023/06/13 00:32:17;;;;;;;6.10;5.50;;;23.60;88.80;;;;;;6204495;28;89166;-68
2023/06/13 00:35:19;;;;;;;6.32;5.72;;;23.50;88.70;;;;;;6205510;28;87761;-68
2023/06/13 00:38:23;;;;;;;5.95;5.45;;;23.60;88.80;;;;;;6205051;28;87964;-68
2023/06/13 00:41:26;;;;;;;6.50;5.90;;;23.60;88.80;;;;;;6205470;28;88964;-67
2023/06/13 00:44:28;;;;;;;6.50;5.90;;;23.50;88.80;;;;;;6206099;28;89055;-67
2023/06/13 00:47:30;;;;;;;6.45;5.85;;;23.60;88.90;;;;;;6205531;28;88423;-67
2023/06/13 00:50:35;;;;;;;5.57;5.05;;;23.50;88.80;;;;;;6205760;28;87962;-67
2023/06/13 00:53:37;;;;;;;6.50;5.90;;;23.50;88.80;;;;;;6201959;28;89292;-67
2023/06/13 00:56:44;;;;;;;5.85;5.25;;;23.50;88.90;;;;;;6204359;28;90021;-67
2023/06/13 00:59:46;;;;;;;6.50;5.90;;;23.50;88.90;;;;;;6204895;28;88122;-67
2023/06/13 01:02:48;;;;;;;6.70;6.10;;;23.50;88.90;;;;;;6204876;28;89117;-67
2023/06/13 01:05:50;;;;;;;6.68;6.07;;;23.60;88.90;;;;;;6207069;28;88646;-67
2023/06/13 01:08:58;;;;;;;6.32;5.72;;;23.50;88.80;;;;;;6202712;28;89056;-67
2023/06/13 01:12:08;;;;;;;6.30;5.70;;;23.60;88.70;;;;;;6206507;28;89012;-67
2023/06/13 01:15:15;;;;;;;6.97;6.28;;;23.60;88.80;;;;;;6203935;28;87999;-67
2023/06/13 01:18:22;;;;;;;5.88;5.38;;;23.50;88.60;;;;;;6209026;28;88375;-67
2023/06/13 01:21:26;;;;;;;6.15;5.55;;;23.60;88.70;;;;;;6208796;28;89249;-67
2023/06/13 01:24:42;;;;;;;5.97;5.32;;;23.60;88.80;;;;;;6207400;28;88941;-67
2023/06/13 01:27:49;;;;;;;5.47;4.97;;;23.50;88.80;;;;;;6199921;28;90083;-67
2023/06/13 01:30:53;;;;;;;6.20;5.60;;;23.60;88.80;;;;;;6208188;28;87716;-67
2023/06/13 01:33:56;;;;;;;6.57;5.97;;;23.50;88.70;;;;;;6204073;28;89065;-68
2023/06/13 01:36:58;;;;;;;5.65;5.15;;;23.50;88.70;;;;;;6207531;28;89095;-67
2023/06/13 01:40:03;;;;;;;6.65;6.05;;;23.50;88.70;;;;;;6207914;28;89055;-67
2023/06/13 01:43:07;;;;;;;6.40;5.80;;;23.50;88.80;;;;;;6208262;28;89172;-67
2023/06/13 01:46:23;;;;;;;5.97;5.38;;;23.50;88.80;;;;;;6209127;28;89114;-67
2023/06/13 01:49:35;;;;;;;6.00;5.50;;;23.50;88.90;;;;;;6208748;28;88678;-67
2023/06/13 01:52:45;;;;;;;6.35;5.75;;;23.50;88.90;;;;;;6202925;28;89161;-67
2023/06/13 01:55:53;;;;;;;6.30;5.70;;;23.50;88.90;;;;;;6206533;28;88084;-67
2023/06/13 01:59:00;;;;;;;6.18;5.63;;;23.50;88.90;;;;;;6208403;28;88893;-67
2023/06/13 02:02:04;;;;;;;6.63;6.03;;;23.50;88.70;;;;;;6203128;28;89208;-67
2023/06/13 02:05:06;;;;;;;6.50;5.82;;;23.50;88.70;;;;;;6207592;28;89109;-67
2023/06/13 02:08:08;;;;;;;6.20;5.63;;;23.50;88.70;;;;;;6208804;28;89054;-67
2023/06/13 02:11:10;;;;;;;6.15;5.55;;;23.50;88.70;;;;;;6207679;28;89080;-68
2023/06/13 02:14:14;;;;;;;5.93;5.43;;;23.50;88.70;;;;;;6207977;28;89001;-67
2023/06/13 02:17:18;;;;;;;6.20;5.63;;;23.50;88.80;;;;;;6208055;28;87952;-68
2023/06/13 02:20:20;;;;;;;6.30;5.70;;;23.50;88.80;;;;;;6206421;28;88428;-68
2023/06/13 02:23:23;;;;;;;5.90;5.32;;;23.50;88.80;;;;;;6207989;28;89084;-67
2023/06/13 02:26:28;;;;;;;5.75;5.25;;;23.50;88.80;;;;;;6208683;28;89401;-68
2023/06/13 02:29:33;;;;;;;5.95;5.45;;;23.50;88.80;;;;;;6206537;28;90374;-68
2023/06/13 02:32:36;;;;;;;5.63;5.13;;;23.50;88.80;;;;;;6207552;28;89098;-68
2023/06/13 02:35:38;;;;;;;5.35;4.85;;;23.50;88.80;;;;;;6207014;28;89474;-68
2023/06/13 02:38:40;;;;;;;5.40;4.90;;;23.50;88.80;;;;;;6207937;28;89242;-67
2023/06/13 02:41:42;;;;;;;5.82;5.32;;;23.50;88.90;;;;;;6207926;28;89172;-68
2023/06/13 02:44:45;;;;;;;6.10;5.60;;;23.50;88.90;;;;;;6206704;28;89200;-68
2023/06/13 02:47:47;;;;;;;5.93;5.32;;;23.50;88.90;;;;;;6207317;28;88250;-67
2023/06/13 02:50:50;;;;;;;5.90;5.40;;;23.50;88.90;;;;;;6207774;28;88354;-67
2023/06/13 02:53:52;;;;;;;5.68;5.18;;;23.50;88.90;;;;;;6207550;28;89079;-67
2023/06/13 02:56:54;;;;;;;5.50;5.00;;;23.50;88.80;;;;;;6204624;28;89059;-67
2023/06/13 02:59:58;;;;;;;6.18;5.35;;;23.50;88.80;;;;;;6206309;28;90031;-67
2023/06/13 03:03:03;;;;;;;5.50;5.00;;;23.50;88.70;;;;;;6207498;28;89072;-68
2023/06/13 03:06:05;;;;;;;5.90;4.95;;;23.50;88.70;;;;;;6206478;28;89054;-68
2023/06/13 03:09:07;;;;;;;5.00;4.57;;;23.40;88.70;;;;;;6206880;28;89035;-67
2023/06/13 03:12:10;;;;;;;5.60;5.10;;;23.50;88.80;;;;;;6206639;28;89114;-67
2023/06/13 03:15:14;;;;;;;5.20;4.70;;;23.50;88.70;;;;;;6207407;28;88916;-67
2023/06/13 03:18:17;;;;;;;5.47;4.97;;;23.50;88.80;;;;;;6206414;28;89241;-67
2023/06/13 03:21:20;;;;;;;7.47;5.55;;;23.50;88.80;;;;;;6207391;28;87252;-68
2023/06/13 03:24:22;;;;;;;5.80;5.20;;;23.40;88.60;;;;;;6198876;28;88723;-67
2023/06/13 03:27:24;;;;;;;5.03;4.63;;;23.50;88.80;;;;;;6206464;28;89114;-67
2023/06/13 03:30:27;;;;;;;5.25;4.75;;;23.50;88.80;;;;;;6204977;28;90364;-67
2023/06/13 03:33:29;;;;;;;5.70;5.20;;;23.40;88.70;;;;;;6206297;28;89050;-67
2023/06/13 03:36:33;;;;;;;5.50;5.00;;;23.40;88.80;;;;;;6204893;28;88275;-67
2023/06/13 03:39:35;;;;;;;5.90;5.30;;;23.50;88.80;;;;;;6206063;28;89335;-67
2023/06/13 03:42:37;;;;;;;5.50;4.95;;;23.50;88.80;;;;;;6201991;28;89723;-67
2023/06/13 03:45:41;;;;;;;5.72;5.15;;;23.50;88.80;;;;;;6198661;28;91569;-67
2023/06/13 03:48:43;;;;;;;5.20;4.70;;;23.50;88.70;;;;;;6204879;28;89411;-67
2023/06/13 03:51:45;;;;;;;5.15;4.75;;;23.50;88.60;;;;;;6194614;28;88925;-67
2023/06/13 03:54:47;;;;;;;5.38;4.88;;;23.50;88.60;;;;;;6205487;28;89046;-67
2023/06/13 03:57:49;;;;;;;5.10;4.60;;;23.50;89.40;;;;;;6193321;28;89010;-67
2023/06/13 04:00:54;;;;;;;5.40;4.90;;;23.50;88.70;;;;;;6204699;28;90420;-67
2023/06/13 04:03:56;;;;;;;5.22;4.72;;;23.50;88.60;;;;;;6205958;28;89161;-67
2023/06/13 04:06:58;;;;;;;5.20;4.70;;;23.40;88.60;;;;;;6204327;28;89024;-67
2023/06/13 04:10:01;;;;;;;5.30;4.80;;;23.40;88.70;;;;;;6205590;28;89064;-67
2023/06/13 04:13:03;;;;;;;5.50;5.00;;;23.50;88.70;;;;;;6206148;28;89118;-67
2023/06/13 04:16:06;;;;;;;4.97;4.50;;;23.50;88.80;;;;;;6206366;28;87065;-67
2023/06/13 04:19:08;;;;;;;4.57;4.18;;;23.40;88.80;;;;;;6206104;28;89047;-67
2023/06/13 04:22:10;;;;;;;5.45;4.95;;;23.40;88.80;;;;;;6200809;28;87319;-68
2023/06/13 04:25:12;;;;;;;5.18;4.68;;;23.50;88.90;;;;;;6201275;28;88950;-67
2023/06/13 04:28:15;;;;;;;5.13;4.63;;;23.50;89.10;;;;;;6205151;28;89376;-68
2023/06/13 04:31:20;;;;;;;5.25;4.75;;;23.40;89.10;;;;;;6205195;28;89031;-67
2023/06/13 04:34:23;;;;;;;5.50;5.00;;;23.50;89.30;;;;;;6205443;28;89231;-67
2023/06/13 04:37:26;;;;;;;4.90;4.43;;;23.50;89.30;;;;;;6199563;28;89294;-67
2023/06/13 04:40:31;;;;;;;5.15;4.65;;;23.50;89.40;;;;;;6203594;28;89468;-67
2023/06/13 04:43:35;;;;;;;5.28;4.82;;;23.50;89.40;;;;;;6210882;28;89119;-67
2023/06/13 04:46:41;;;;;;;5.20;4.70;;;23.50;89.50;;;;;;6210741;28;88067;-67
2023/06/13 04:49:45;;;;;;;5.15;4.63;;;23.50;89.60;;;;;;6209189;28;89088;-67
2023/06/13 04:52:53;;;;;;;5.25;4.75;;;23.50;89.40;;;;;;6209494;28;88689;-67
2023/06/13 04:55:55;;;;;;;4.65;4.25;;;23.50;89.40;;;;;;6208101;28;89093;-67
2023/06/13 04:58:57;;;;;;;4.80;4.40;;;23.50;89.40;;;;;;6198472;28;89098;-67
2023/06/13 05:02:00;;;;;;;4.97;4.50;;;23.60;89.50;;;;;;6205759;28;90062;-67
2023/06/13 05:05:04;;;;;;;5.13;4.63;;;23.50;89.40;;;;;;6207337;28;89104;-67
2023/06/13 05:08:07;;;;;;;4.72;4.32;;;23.50;89.40;;;;;;6208786;28;89125;-67
2023/06/13 05:11:09;;;;;;;4.65;4.25;;;23.50;89.40;;;;;;6210010;28;88039;-67
2023/06/13 05:14:11;;;;;;;4.72;4.32;;;23.50;89.40;;;;;;6209716;28;89204;-67
2023/06/13 05:17:14;;;;;;;4.75;4.35;;;23.50;89.40;;;;;;6209996;28;89145;-66
2023/06/13 05:20:16;;;;;;;4.70;4.30;;;23.60;89.40;;;;;;6207134;28;89130;-68
2023/06/13 05:23:20;;;;;;;4.88;4.30;;;23.50;89.40;;;;;;6208671;28;88234;-67
2023/06/13 05:26:22;;;;;;;4.60;4.20;;;23.60;89.40;;;;;;6209002;28;89101;-67
2023/06/13 05:29:25;;;;;;;4.70;4.15;;;23.60;89.30;;;;;;6209469;28;89057;-67
2023/06/13 05:32:28;;;;;;;4.57;4.18;;;23.60;89.30;;;;;;6209184;28;89954;-67
2023/06/13 05:35:30;;;;;;;4.55;4.03;;;23.60;89.30;;;;;;6194982;28;89133;-67
2023/06/13 05:38:32;;;;;;;4.43;4.03;;;23.60;89.30;;;;;;6208694;28;89059;-67
2023/06/13 05:41:34;;;;;;;4.50;4.10;;;23.60;89.40;;;;;;6208448;28;89200;-67
2023/06/13 05:44:36;;;;;;;4.90;4.43;;;23.60;89.30;;;;;;6202663;28;88031;-67
2023/06/13 05:47:40;;;;;;;4.05;3.75;;;23.60;89.30;;;;;;6192973;28;89111;-67
2023/06/13 05:50:42;;;;;;;4.63;4.22;;;23.60;89.30;;;;;;6200134;28;89128;-67
2023/06/13 05:53:44;;;;;;;4.55;4.15;;;23.60;89.30;;;;;;6207594;28;88639;-67
2023/06/13 05:56:46;;;;;;;4.57;4.18;;;23.60;89.30;;;;;;6202321;28;88334;-67
2023/06/13 05:59:48;;;;;;;4.43;4.03;;;23.60;89.30;;;;;;6208721;28;89541;-67
2023/06/13 06:02:52;;;;;;;4.25;3.85;;;23.60;89.20;;;;;;6207822;28;90117;-67
2023/06/13 06:05:54;;;;;;;4.85;4.28;;;23.60;89.30;;;;;;6207940;28;89511;-67
2023/06/13 06:08:56;;;;;;;4.50;4.10;;;23.60;89.20;;;;;;6209110;28;89077;-67
2023/06/13 06:11:58;;;;;;;4.40;4.00;;;23.60;89.10;;;;;;6207415;28;89143;-67
2023/06/13 06:15:00;;;;;;;4.60;4.20;;;23.60;89.10;;;;;;6207248;28;89329;-67
2023/06/13 06:18:04;;;;;;;4.55;4.13;;;23.60;89.10;;;;;;6206400;28;89137;-67
2023/06/13 06:21:06;;;;;;;4.45;4.05;;;23.60;89.10;;;;;;6197431;28;89082;-68
2023/06/13 06:24:09;;;;;;;4.47;4.07;;;23.60;89.10;;;;;;6208523;28;88532;-67
2023/06/13 06:27:12;;;;;;;4.22;3.83;;;23.60;89.00;;;;;;6208104;28;88995;-67
2023/06/13 06:30:14;;;;;;;4.72;3.90;;;23.60;88.90;;;;;;6205310;28;89068;-67
2023/06/13 06:33:18;;;;;;;4.30;3.90;;;23.60;88.90;;;;;;6203249;28;90005;-67
2023/06/13 06:36:22;;;;;;;4.50;4.10;;;23.60;88.90;;;;;;6205510;28;87965;-67
2023/06/13 06:39:24;;;;;;;4.82;4.03;;;23.60;88.90;;;;;;6207916;28;89291;-67
2023/06/13 06:42:26;;;;;;;4.90;4.40;;;23.60;88.90;;;;;;6207396;28;89079;-67
2023/06/13 06:45:28;;;;;;;4.38;3.97;;;23.60;88.90;;;;;;6209055;28;89091;-67
2023/06/13 06:48:32;;;;;;;4.00;3.60;;;23.70;89.00;;;;;;6208091;28;90578;-67
2023/06/13 06:51:33;;;;;;;4.40;4.00;;;23.60;88.90;;;;;;6207158;28;89079;-67
2023/06/13 06:54:35;;;;;;;4.30;4.00;;;23.60;88.90;;;;;;6208033;28;88395;-67
2023/06/13 06:57:37;;;;;;;4.30;3.83;;;23.60;88.90;;;;;;6200864;28;87994;-67
2023/06/13 07:00:39;;;;;;;4.47;4.07;;;23.60;88.90;;;;;;6199661;28;89389;-67
2023/06/13 07:03:43;;;;;;;4.63;4.22;;;23.60;89.00;;;;;;6206585;28;90106;-67
2023/06/13 07:06:45;;;;;;;4.30;3.90;;;23.60;88.90;;;;;;6207397;28;89116;-67
2023/06/13 07:09:47;;;;;;;3.90;3.60;;;23.60;88.90;;;;;;6205775;28;89147;-67
2023/06/13 07:12:49;;;;;;;4.32;3.92;;;23.60;88.90;;;;;;6207666;28;89032;-67
2023/06/13 07:15:51;;;;;;;3.95;3.65;;;23.70;89.00;;;;;;6206976;28;89102;-67
2023/06/13 07:18:54;;;;;;;4.00;3.70;;;23.60;88.90;;;;;;6205740;28;89095;-67
2023/06/13 07:21:56;;;;;;;3.90;3.60;;;23.70;88.90;;;;;;6206949;28;89019;-67
2023/06/13 07:24:58;;;;;;;4.32;3.92;;;23.60;88.90;;;;;;6205942;28;88275;-67
2023/06/13 07:28:00;;;;;;;4.10;3.70;;;23.60;88.80;;;;;;6206579;28;89825;-68
2023/06/13 07:31:03;;;;;;;4.50;3.83;;;23.60;88.80;;;;;;6206443;28;89245;-67
2023/06/13 07:34:06;;;;;;;4.38;3.95;;;23.60;88.80;;;;;;6206543;28;90031;-67
2023/06/13 07:37:10;;;;;;;4.60;4.15;;;23.70;88.80;;;;;;6205410;28;89352;-67
2023/06/13 07:40:12;;;;;;;4.07;3.75;;;23.70;88.90;;;;;;6206784;28;89110;-67
2023/06/13 07:43:15;;;;;;;4.28;3.88;;;23.60;88.80;;;;;;6186128;28;89150;-67
2023/06/13 07:46:17;;;;;;;3.70;3.40;;;23.70;88.90;;;;;;6200740;28;88775;-67
2023/06/13 07:49:21;;;;;;;3.92;3.63;;;23.70;88.90;;;;;;6206550;28;89118;-67
2023/06/13 07:52:22;;;;;;;4.03;3.72;;;23.60;88.80;;;;;;6206088;28;87986;-67
2023/06/13 07:55:24;;;;;;;5.50;4.45;;;23.60;88.80;;;;;;6205783;28;88296;-67
2023/06/13 07:58:26;;;;;;;4.25;3.85;;;23.60;88.80;;;;;;6207568;28;89044;-67
2023/06/13 08:01:28;;;;;;;4.00;3.70;;;23.70;88.80;;;;;;6206885;28;88998;-67
2023/06/13 08:04:32;;;;;;;4.22;3.83;;;23.60;88.80;;;;;;6205814;28;90930;-68
2023/06/13 08:07:34;;;;;;;4.35;3.70;;;23.60;88.80;;;;;;6205734;28;89086;-67
2023/06/13 08:10:36;;;;;;;4.03;3.63;;;23.70;88.90;;;;;;6206976;28;89075;-67
2023/06/13 08:13:37;;;;;;;3.88;3.58;;;23.70;88.90;;;;;;6207000;28;88961;-67
2023/06/13 08:16:40;;;;;;;3.83;3.53;;;23.70;88.90;;;;;;6205609;28;89286;-67
2023/06/13 08:19:48;;;;;;;4.05;3.65;;;23.70;89.00;;;;;;6205189;28;89093;-68
2023/06/13 08:22:51;;;;;;;4.25;3.70;;;23.60;88.90;;;;;;6205993;28;88973;-67
2023/06/13 08:25:53;;;;;;;4.05;3.65;;;23.70;88.90;;;;;;6205805;28;88866;-67
2023/06/13 08:28:56;;;;;;;4.18;3.78;;;23.60;88.80;;;;;;6205518;28;89096;-67
2023/06/13 08:31:58;;;;;;;5.47;3.85;;;23.60;88.80;;;;;;6205634;28;87956;-67
2023/06/13 08:35:02;;;;;;;4.10;3.70;;;23.60;88.80;;;;;;6204866;28;90054;-67
2023/06/13 08:38:04;;;;;;;3.85;3.55;;;23.70;88.80;;;;;;6199923;28;88952;-67
2023/06/13 08:41:06;;;;;;;3.83;3.40;;;23.60;88.70;;;;;;6205373;28;89095;-67
2023/06/13 08:44:09;;;;;;;3.90;3.50;;;23.60;88.70;;;;;;6205082;28;89035;-67
2023/06/13 08:47:12;;;;;;;3.78;3.47;;;23.60;88.60;;;;;;6205561;28;89027;-67
2023/06/13 08:50:18;;;;;;;3.65;3.35;;;23.60;88.60;;;;;;6205966;28;89153;-67
2023/06/13 08:53:22;;;;;;;4.03;3.63;;;23.60;88.60;;;;;;6205254;28;89060;-67
2023/06/13 08:56:25;;;;;;;3.97;3.63;;;23.60;88.60;;;;;;6204128;28;88326;-68
2023/06/13 08:59:28;;;;;;;3.70;3.40;;;23.60;88.60;;;;;;6205905;28;89130;-67
2023/06/13 09:02:31;;;;;;;4.00;3.60;;;23.60;88.70;;;;;;6204027;28;89257;-67
2023/06/13 09:05:35;;;;;;;3.80;3.50;;;23.60;88.60;;;;;;6205189;28;90108;-67
2023/06/13 09:08:38;;;;;;;3.40;3.10;;;23.60;88.50;;;;;;6205131;28;89064;-67
2023/06/13 09:11:40;;;;;;;4.18;3.78;;;23.60;88.40;;;;;;6204672;28;89013;-67
2023/06/13 09:14:43;;;;;;;4.20;3.80;;;23.60;88.40;;;;;;6204682;28;89402;-67
2023/06/13 09:17:46;;;;;;;3.63;3.33;;;23.60;88.40;;;;;;6204442;28;88998;-67
2023/06/13 09:20:49;;;;;;;3.80;3.50;;;23.60;88.40;;;;;;6204897;28;89056;-67
2023/06/13 09:23:55;;;;;;;4.00;3.47;;;23.60;88.30;;;;;;6205347;28;89004;-67
2023/06/13 09:26:58;;;;;;;3.90;3.60;;;23.60;88.30;;;;;;6209118;28;88413;-67
2023/06/13 09:30:00;;;;;;;3.75;3.45;;;23.60;88.30;;;;;;6189276;28;89002;-67
2023/06/13 09:33:03;;;;;;;3.70;3.40;;;23.60;88.30;;;;;;6202860;28;89086;-67
2023/06/13 09:36:09;;;;;;;3.95;3.55;;;23.60;88.20;;;;;;6207825;28;89715;-67
2023/06/13 09:39:12;;;;;;;4.30;3.80;;;23.60;88.30;;;;;;6198973;28;89228;-67
2023/06/13 09:42:14;;;;;;;3.58;3.28;;;23.60;88.30;;;;;;6208499;28;89020;-67
2023/06/13 09:45:16;;;;;;;3.53;3.22;;;23.60;88.30;;;;;;6197528;28;89092;-67
2023/06/13 09:48:18;;;;;;;3.20;2.90;;;23.60;88.30;;;;;;6207605;28;89088;-67
2023/06/13 09:51:23;;;;;;;3.50;3.20;;;23.60;88.40;;;;;;6208418;28;89093;-67
2023/06/13 09:54:29;;;;;;;3.60;3.30;;;23.60;88.40;;;;;;6208240;28;89255;-67
2023/06/13 09:57:31;;;;;;;3.50;3.20;;;23.60;88.30;;;;;;6208464;28;87385;-67
2023/06/13 10:00:33;;;;;;;3.60;3.30;;;23.60;88.30;;;;;;6208548;28;89077;-67
2023/06/13 10:03:35;;;;;;;3.63;3.33;;;23.60;88.20;;;;;;6207493;28;89161;-67
2023/06/13 10:06:39;;;;;;;3.55;3.25;;;23.60;88.20;;;;;;6207718;28;89942;-67
2023/06/13 10:09:41;;;;;;;3.97;3.58;;;23.60;88.20;;;;;;6208033;28;89128;-67
2023/06/13 10:12:48;;;;;;;3.47;3.17;;;23.60;88.20;;;;;;6209254;28;89263;-67
2023/06/13 10:15:53;;;;;;;4.00;3.60;;;23.60;88.20;;;;;;6207330;28;89087;-67
2023/06/13 10:18:58;;;;;;;4.43;3.17;;;23.60;88.20;;;;;;6208473;28;89202;-67
2023/06/13 10:22:02;;;;;;;3.63;3.22;;;23.60;88.00;;;;;;6208126;28;89122;-67
2023/06/13 10:25:06;;;;;;;4.50;3.22;;;23.60;88.00;;;;;;6189810;28;89317;-67
2023/06/13 10:28:17;;;;;;;3.35;3.05;;;23.60;88.00;;;;;;6201859;28;88175;-67
2023/06/13 10:31:31;;;;;;;3.35;3.05;;;23.60;87.90;;;;;;6203656;28;89127;-67
2023/06/13 10:34:57;;;;;;;3.42;3.13;;;23.60;87.50;;;;;;6186327;28;88901;-67
2023/06/13 10:38:33;;;;;;;3.13;2.83;;;23.60;87.60;;;;;;6208349;28;90091;-67
2023/06/13 10:42:00;;;;;;;3.35;2.97;;;23.60;87.60;;;;;;6207554;28;89113;-67
2023/06/13 10:45:08;;;;;;;3.25;2.95;;;23.60;87.40;;;;;;6207523;28;89067;-67
2023/06/13 10:48:10;;;;;;;3.40;2.97;;;23.60;87.40;;;;;;6207748;28;89142;-67
2023/06/13 10:51:12;;;;;;;3.38;3.08;;;23.50;87.20;;;;;;6207708;28;89031;-67
2023/06/13 10:54:16;;;;;;;3.50;3.20;;;23.60;87.10;;;;;;6208063;28;89035;-68
2023/06/13 10:57:18;;;;;;;3.55;3.25;;;23.60;87.20;;;;;;6205137;28;89058;-67
2023/06/13 11:00:32;;;;;;;3.60;3.30;;;23.60;87.20;;;;;;6207530;28;87376;-67
2023/06/13 11:03:34;;;;;;;3.78;3.38;;;23.60;87.20;;;;;;6206494;28;89054;-67
2023/06/13 11:06:36;;;;;;;3.33;2.88;;;23.60;87.20;;;;;;6207549;28;89116;-67
2023/06/13 11:09:39;;;;;;;3.22;2.92;;;23.60;87.10;;;;;;6205776;28;90017;-67
2023/06/13 11:12:43;;;;;;;3.20;2.90;;;23.60;86.90;;;;;;6206957;28;88180;-67
2023/06/13 11:15:45;;;;;;;3.38;3.08;;;23.60;86.60;;;;;;6207031;28;89246;-67
2023/06/13 11:18:48;;;;;;;3.28;2.97;;;23.60;86.60;;;;;;6207191;28;88967;-67
2023/06/13 11:22:11;;;;;;;3.47;3.17;;;23.60;86.50;;;;;;6202294;28;89125;-68
2023/06/13 11:25:14;;;;;;;3.00;2.70;;;23.50;86.20;;;;;;6206839;28;89619;-68
2023/06/13 11:28:17;;;;;;;3.03;2.83;;;23.60;86.40;;;;;;6207205;28;89123;-68
2023/06/13 11:31:20;;;;;;;3.00;2.72;;;23.50;86.40;;;;;;6206365;28;88376;-68
2023/06/13 11:34:25;;;;;;;3.40;3.05;;;23.50;86.60;;;;;;6207258;28;88952;-68
2023/06/13 11:37:31;;;;;;;3.42;3.13;;;23.60;86.60;;;;;;6207662;28;89180;-67
2023/06/13 11:40:40;;;;;;;3.33;3.03;;;23.60;86.40;;;;;;6194713;28;89061;-68
2023/06/13 11:43:43;;;;;;;3.30;3.00;;;23.60;86.20;;;;;;6193506;28;88016;-68
2023/06/13 11:46:46;;;;;;;3.13;2.83;;;23.60;86.10;;;;;;6205555;28;89465;-68
2023/06/13 11:49:57;;;;;;;3.05;2.80;;;23.60;86.10;;;;;;6205650;28;89418;-68
2023/06/13 11:53:05;;;;;;;2.95;2.75;;;23.60;86.00;;;;;;6206559;28;89211;-68
2023/06/13 11:56:09;;;;;;;3.20;2.90;;;23.50;85.70;;;;;;6205403;28;88746;-68
2023/06/13 11:59:19;;;;;;;3.28;2.97;;;23.50;85.50;;;;;;6205473;28;88341;-68
2023/06/13 12:02:21;;;;;;;3.25;2.70;;;23.60;85.50;;;;;;6204707;28;88045;-67
2023/06/13 12:05:23;;;;;;;3.38;2.95;;;23.60;85.50;;;;;;6206645;28;88992;-68
2023/06/13 12:08:25;;;;;;;3.08;2.78;;;23.50;85.40;;;;;;6205537;28;89096;-68
2023/06/13 12:11:31;;;;;;;3.10;2.80;;;23.60;85.50;;;;;;6204992;28;90074;-68
2023/06/13 12:14:33;;;;;;;3.28;2.50;;;23.60;85.70;;;;;;6205954;28;89045;-68
2023/06/13 12:17:35;;;;;;;2.67;2.47;;;23.50;85.70;;;;;;6205616;28;89685;-68
2023/06/13 12:20:47;;;;;;;3.60;2.95;;;23.50;85.70;;;;;;6206260;28;89425;-68
2023/06/13 12:23:50;;;;;;;3.97;3.10;;;23.60;86.00;;;;;;6205357;28;87989;-67
2023/06/13 12:26:54;;;;;;;3.25;2.95;;;23.50;86.00;;;;;;6206255;28;88194;-68
2023/06/13 12:29:57;;;;;;;3.50;2.60;;;23.50;85.90;;;;;;6207043;28;89008;-67
2023/06/13 12:32:59;;;;;;;3.10;2.80;;;23.60;85.90;;;;;;6206857;28;88758;-67
2023/06/13 12:36:04;;;;;;;3.38;2.92;;;23.60;85.90;;;;;;6205121;28;89096;-67
2023/06/13 12:39:06;;;;;;;2.85;2.60;;;23.60;85.80;;;;;;6206210;28;89042;-67
2023/06/13 12:42:10;;;;;;;2.50;2.30;;;23.50;85.50;;;;;;6204194;28;90145;-67
2023/06/13 12:45:12;;;;;;;3.20;2.90;;;23.60;85.50;;;;;;6204378;28;89501;-67
2023/06/13 12:48:18;;;;;;;2.90;2.60;;;23.50;85.50;;;;;;6205310;28;88982;-67
2023/06/13 12:51:30;;;;;;;3.28;2.97;;;23.60;85.50;;;;;;6204385;28;89048;-67
2023/06/13 12:54:35;;;;;;;2.63;2.42;;;23.60;85.50;;;;;;6205396;28;89383;-68
2023/06/13 12:57:39;;;;;;;2.60;2.40;;;23.60;85.50;;;;;;6205239;28;89017;-68
2023/06/13 13:00:46;;;;;;;2.60;2.40;;;23.50;85.50;;;;;;6208346;28;89438;-67
2023/06/13 13:03:48;;;;;;;2.72;2.53;;;23.50;85.40;;;;;;6209594;28;88299;-68
2023/06/13 13:06:50;;;;;;;3.33;2.50;;;23.50;85.40;;;;;;6209814;28;89073;-67
2023/06/13 13:09:52;;;;;;;3.08;2.83;;;23.50;85.50;;;;;;6208908;28;89152;-67
2023/06/13 13:12:56;;;;;;;3.08;2.78;;;23.60;85.60;;;;;;6207740;28;89994;-67
2023/06/13 13:15:57;;;;;;;3.28;2.78;;;23.50;85.50;;;;;;6208469;28;89110;-67
2023/06/13 13:18:59;;;;;;;2.80;2.60;;;23.50;85.50;;;;;;6209400;28;89062;-67
2023/06/13 13:22:02;;;;;;;3.28;2.97;;;23.50;85.50;;;;;;6204504;28;89124;-68
2023/06/13 13:25:05;;;;;;;3.20;2.90;;;23.60;85.60;;;;;;6208642;28;89047;-68
2023/06/13 13:28:09;;;;;;;3.28;2.45;;;23.60;85.60;;;;;;6208306;28;89100;-68
2023/06/13 13:31:11;;;;;;;2.97;2.67;;;23.50;85.40;;;;;;6208642;28;89514;-68
2023/06/13 13:34:13;;;;;;;3.38;2.70;;;23.50;85.40;;;;;;6208872;28;88317;-68
2023/06/13 13:37:15;;;;;;;2.85;2.65;;;23.50;85.30;;;;;;6202902;28;89671;-68
2023/06/13 13:40:17;;;;;;;3.42;2.60;;;23.60;85.20;;;;;;6206778;28;89088;-68
2023/06/13 13:43:21;;;;;;;2.88;2.65;;;23.50;85.10;;;;;;6206839;28;90051;-67
2023/06/13 13:46:23;;;;;;;2.70;2.50;;;23.60;85.20;;;;;;6207629;28;89113;-68
2023/06/13 13:49:27;;;;;;;3.72;2.55;;;23.50;85.10;;;;;;6208894;28;89032;-68
2023/06/13 13:52:29;;;;;;;3.10;2.80;;;23.50;85.20;;;;;;6207249;28;89119;-68
2023/06/13 13:55:31;;;;;;;4.15;3.22;;;23.50;85.20;;;;;;6208947;28;88984;-68
2023/06/13 13:58:34;;;;;;;3.35;2.70;;;23.50;85.20;;;;;;6208869;28;88884;-68
2023/06/13 14:01:36;;;;;;;2.72;2.53;;;23.50;85.20;;;;;;6208173;28;89090;-67
2023/06/13 14:04:38;;;;;;;3.00;2.70;;;23.50;85.30;;;;;;6208753;28;89240;-68
2023/06/13 14:07:40;;;;;;;3.50;2.88;;;23.50;85.30;;;;;;6207810;28;89077;-68
2023/06/13 14:10:42;;;;;;;2.85;2.55;;;23.50;85.40;;;;;;6207879;28;89081;-68
2023/06/13 14:13:46;;;;;;;3.00;2.80;;;23.50;85.40;;;;;;6207481;28;90084;-68
2023/06/13 14:16:48;;;;;;;2.95;2.65;;;23.50;85.50;;;;;;6207611;28;89345;-68
2023/06/13 14:19:51;;;;;;;2.90;2.70;;;23.50;85.50;;;;;;6207925;28;89063;-68
2023/06/13 14:22:53;;;;;;;3.05;2.75;;;23.60;85.50;;;;;;6204619;28;89091;-68
2023/06/13 14:25:55;;;;;;;2.70;2.50;;;23.50;85.50;;;;;;6207341;28;89279;-68
2023/06/13 14:28:59;;;;;;;2.83;2.50;;;23.50;85.60;;;;;;6208367;28;89078;-68
2023/06/13 14:32:01;;;;;;;2.65;2.45;;;23.50;85.50;;;;;;6207606;28;88798;-68
2023/06/13 14:35:03;;;;;;;2.70;2.50;;;23.50;85.50;;;;;;6208168;28;88785;-68
2023/06/13 14:38:05;;;;;;;2.80;2.60;;;23.50;85.40;;;;;;6207639;28;89125;-68
2023/06/13 14:41:07;;;;;;;2.90;2.70;;;23.50;85.30;;;;;;6208429;28;89713;-68
2023/06/13 14:44:10;;;;;;;3.63;2.90;;;23.60;85.20;;;;;;6206352;28;90054;-68
2023/06/13 14:47:14;;;;;;;3.33;2.92;;;23.60;85.20;;;;;;6208225;28;88299;-68
2023/06/13 14:50:17;;;;;;;3.20;2.60;;;23.50;85.20;;;;;;6209148;28;89081;-68
2023/06/13 14:53:18;;;;;;;2.65;2.45;;;23.50;85.10;;;;;;6207883;28;89392;-69
2023/06/13 14:56:20;;;;;;;2.60;2.35;;;23.50;85.00;;;;;;6207738;28;89361;-68
2023/06/13 14:59:24;;;;;;;2.70;2.50;;;23.50;85.00;;;;;;6208554;28;89110;-69
2023/06/13 15:02:27;;;;;;;2.92;2.53;;;23.50;85.20;;;;;;6207579;28;89166;-68
2023/06/13 15:05:29;;;;;;;3.00;2.50;;;23.50;85.40;;;;;;6207756;28;88425;-69
2023/06/13 15:08:31;;;;;;;2.70;2.50;;;23.50;85.40;;;;;;6206782;28;89112;-68
2023/06/13 15:11:33;;;;;;;2.88;2.60;;;23.60;85.50;;;;;;6207142;28;89246;-68
2023/06/13 15:14:36;;;;;;;2.75;2.55;;;23.60;85.40;;;;;;6205335;28;90203;-68
2023/06/13 15:17:38;;;;;;;2.58;2.38;;;23.50;85.40;;;;;;6203908;28;89137;-68
2023/06/13 15:20:40;;;;;;;3.00;2.70;;;23.50;85.00;;;;;;6197988;28;89412;-68
2023/06/13 15:23:44;;;;;;;2.50;2.30;;;23.60;84.90;;;;;;6206500;28;89172;-68
2023/06/13 15:26:46;;;;;;;2.88;2.60;;;23.50;84.90;;;;;;6206951;28;89190;-68
2023/06/13 15:29:49;;;;;;;2.67;2.20;;;23.50;84.90;;;;;;6207017;28;89082;-67
2023/06/13 15:32:51;;;;;;;2.40;2.20;;;23.50;84.90;;;;;;6203381;28;89098;-68
2023/06/13 15:35:53;;;;;;;2.53;2.33;;;23.60;84.90;;;;;;6207492;28;88453;-68
2023/06/13 15:38:55;;;;;;;2.60;2.40;;;23.50;84.90;;;;;;6206596;28;89554;-68
2023/06/13 15:41:57;;;;;;;2.60;2.40;;;23.60;85.00;;;;;;6206500;28;89042;-67
2023/06/13 15:45:00;;;;;;;2.65;2.30;;;23.50;84.90;;;;;;6204263;28;89908;-67
2023/06/13 15:48:05;;;;;;;2.60;2.40;;;23.50;84.70;;;;;;6206095;28;89365;-68
2023/06/13 15:51:07;;;;;;;3.00;2.60;;;23.50;84.70;;;;;;6196518;28;88983;-68
2023/06/13 15:54:09;;;;;;;2.80;2.50;;;23.50;84.70;;;;;;6205273;28;89481;-67
2023/06/13 15:57:12;;;;;;;2.58;2.38;;;23.50;85.00;;;;;;6203534;28;88900;-68